createdAt,value
2023-06-23T00:01:21.526Z,17.42
2023-06-23T00:03:50.153Z,17.39
2023-06-23T00:06:18.249Z,17.40
2023-06-23T00:08:48.761Z,17.42
2023-06-23T00:11:17.018Z,17.41
2023-06-23T00:13:45.099Z,17.40
2023-06-23T00:16:13.141Z,17.37
2023-06-23T00:18:41.156Z,17.35
2023-06-23T00:21:11.645Z,17.30
2023-06-23T00:23:41.071Z,17.28
2023-06-23T00:26:09.577Z,17.25
2023-06-23T00:28:38.618Z,17.20
2023-06-23T00:31:09.327Z,17.15
2023-06-23T00:33:37.618Z,17.12
2023-06-23T00:36:05.985Z,17.15
2023-06-23T00:38:35.263Z,17.16
2023-06-23T00:41:03.899Z,17.19
2023-06-23T00:43:32.480Z,17.16
2023-06-23T00:46:19.684Z,17.18
2023-06-23T00:48:50.126Z,17.23
2023-06-23T00:51:18.204Z,17.24
2023-06-23T00:53:48.595Z,17.25
2023-06-23T00:56:19.324Z,17.30
2023-06-23T00:58:47.446Z,17.29
2023-06-23T01:01:15.391Z,17.28
2023-06-23T01:03:45.397Z,17.28
2023-06-23T01:06:41.088Z,17.28
2023-06-23T01:09:31.599Z,17.31
2023-06-23T01:12:09.209Z,17.30
2023-06-23T01:14:51.409Z,17.27
2023-06-23T01:17:27.809Z,17.27
2023-06-23T01:20:14.570Z,17.26
2023-06-23T01:23:18.121Z,17.24
2023-06-23T01:26:07.811Z,17.24
2023-06-23T01:28:49.133Z,17.21
2023-06-23T01:31:32.792Z,17.18
2023-06-23T01:34:05.978Z,17.19
2023-06-23T01:36:47.341Z,17.18
2023-06-23T01:39:19.060Z,17.19
2023-06-23T01:41:54.212Z,17.19
2023-06-23T01:44:26.063Z,17.18
2023-06-23T01:46:58.203Z,17.21
2023-06-23T01:49:38.151Z,17.23
2023-06-23T01:52:08.459Z,17.22
2023-06-23T01:54:40.222Z,17.23
2023-06-23T01:57:15.016Z,17.22
2023-06-23T01:59:46.343Z,17.26
2023-06-23T02:02:17.134Z,17.24
2023-06-23T02:04:48.774Z,17.27
2023-06-23T02:07:21.094Z,17.28
2023-06-23T02:09:51.022Z,17.30
2023-06-23T02:12:20.014Z,17.29
2023-06-23T02:14:50.223Z,17.28
2023-06-23T02:17:19.736Z,17.31
2023-06-23T02:19:49.896Z,17.31
2023-06-23T02:22:22.029Z,17.33
2023-06-23T02:24:51.619Z,17.34
2023-06-23T02:27:22.160Z,17.33
2023-06-23T02:29:51.443Z,17.33
2023-06-23T02:32:19.502Z,17.30
2023-06-23T02:34:48.459Z,17.30
2023-06-23T02:37:23.980Z,17.28
2023-06-23T02:39:58.701Z,17.27
2023-06-23T02:42:34.355Z,17.30
2023-06-23T02:45:10.227Z,17.28
2023-06-23T02:47:41.738Z,17.29
2023-06-23T02:50:15.845Z,17.29
2023-06-23T02:52:48.852Z,17.31
2023-06-23T02:55:21.248Z,17.31
2023-06-23T02:57:52.461Z,17.35
2023-06-23T03:00:24.562Z,17.34
2023-06-23T03:02:57.598Z,17.33
2023-06-23T03:05:27.974Z,17.34
2023-06-23T03:07:56.323Z,17.35
2023-06-23T03:10:24.440Z,17.30
2023-06-23T03:12:52.520Z,17.28
2023-06-23T03:15:20.745Z,17.29
2023-06-23T03:17:53.921Z,17.25
2023-06-23T03:20:28.115Z,17.20
2023-06-23T03:23:04.105Z,17.14
2023-06-23T03:25:33.232Z,17.08
2023-06-23T03:28:07.370Z,17.04
2023-06-23T03:30:51.030Z,17.00
2023-06-23T03:33:24.012Z,16.96
2023-06-23T03:35:56.959Z,16.92
2023-06-23T03:38:29.149Z,16.86
2023-06-23T03:41:05.340Z,16.80
2023-06-23T03:43:55.222Z,16.76
2023-06-23T03:46:28.503Z,16.76
2023-06-23T03:48:59.608Z,16.76
2023-06-23T03:51:30.417Z,16.76
2023-06-23T03:54:01.754Z,16.75
2023-06-23T03:56:33.839Z,16.75
2023-06-23T03:59:04.051Z,16.77
2023-06-23T04:01:35.387Z,16.80
2023-06-23T04:04:05.714Z,16.79
2023-06-23T04:06:35.378Z,16.80
2023-06-23T04:09:05.175Z,16.79
2023-06-23T04:11:34.877Z,16.83
2023-06-23T04:14:04.390Z,16.86
2023-06-23T04:16:37.871Z,16.85
2023-06-23T04:19:11.772Z,16.83
2023-06-23T04:21:42.966Z,16.83
2023-06-23T04:24:14.176Z,16.86
2023-06-23T04:26:45.305Z,16.91
2023-06-23T04:29:15.115Z,16.96
2023-06-23T04:31:45.993Z,16.97
2023-06-23T04:34:14.174Z,16.99
2023-06-23T04:36:50.197Z,17.00
2023-06-23T04:39:42.682Z,17.00
2023-06-23T04:42:13.767Z,16.97
2023-06-23T04:44:49.817Z,16.98
2023-06-23T04:47:21.915Z,17.01
2023-06-23T04:49:58.631Z,17.01
2023-06-23T04:52:29.516Z,17.00
2023-06-23T04:55:00.482Z,17.00
2023-06-23T04:57:34.454Z,16.98
2023-06-23T05:00:10.039Z,16.95
2023-06-23T05:02:40.312Z,16.95
2023-06-23T05:05:11.813Z,16.93
2023-06-23T05:07:41.113Z,16.87
2023-06-23T05:10:10.050Z,16.79
2023-06-23T05:12:39.770Z,16.76
2023-06-23T05:15:09.329Z,16.76
2023-06-23T05:17:40.200Z,16.74
2023-06-23T05:20:11.625Z,16.77
2023-06-23T05:22:41.095Z,16.81
2023-06-23T05:25:10.317Z,16.87
2023-06-23T05:27:41.098Z,16.87
2023-06-23T05:30:11.704Z,16.89
2023-06-23T05:32:42.208Z,16.90
2023-06-23T05:35:11.935Z,16.89
2023-06-23T05:37:43.730Z,16.85
2023-06-23T05:40:14.843Z,16.93
2023-06-23T05:42:44.092Z,16.99
2023-06-23T05:45:13.780Z,17.04
2023-06-23T05:47:57.030Z,17.11
2023-06-23T05:50:27.986Z,17.11
2023-06-23T05:53:13.165Z,17.07
2023-06-23T05:55:47.200Z,17.03
2023-06-23T05:58:18.161Z,17.08
2023-06-23T06:01:10.418Z,17.16
2023-06-23T06:03:43.081Z,17.23
2023-06-23T06:06:12.799Z,17.24
2023-06-23T06:08:42.385Z,17.18
2023-06-23T06:11:13.658Z,17.16
2023-06-23T06:13:45.112Z,17.11
2023-06-23T06:16:14.365Z,17.06
2023-06-23T06:18:44.542Z,17.02
2023-06-23T06:21:14.539Z,17.01
2023-06-23T06:23:43.554Z,16.98
2023-06-23T06:26:12.903Z,17.01
2023-06-23T06:28:44.306Z,17.05
2023-06-23T06:31:13.676Z,17.11
2023-06-23T06:33:43.110Z,17.18
2023-06-23T06:36:13.469Z,17.21
2023-06-23T06:38:42.494Z,17.20
2023-06-23T06:41:11.195Z,17.20
2023-06-23T06:43:39.374Z,17.17
2023-06-23T06:46:07.928Z,17.13
2023-06-23T06:48:37.993Z,17.10
2023-06-23T06:51:07.385Z,17.09
2023-06-23T06:53:37.293Z,17.13
2023-06-23T06:56:06.834Z,17.21
2023-06-23T06:58:36.134Z,17.29
2023-06-23T07:01:05.064Z,17.31
2023-06-23T07:03:34.851Z,17.39
2023-06-23T07:06:03.339Z,17.40
2023-06-23T07:08:31.608Z,17.46
2023-06-23T07:10:59.755Z,17.54
2023-06-23T07:13:27.910Z,17.59
2023-06-23T07:15:56.025Z,17.65
2023-06-23T07:18:26.142Z,17.69
2023-06-23T07:20:54.254Z,17.84
2023-06-23T07:23:22.250Z,17.86
2023-06-23T07:25:50.300Z,17.82
2023-06-23T07:28:18.493Z,17.80
2023-06-23T07:30:46.583Z,17.81
2023-06-23T07:33:14.679Z,17.82
2023-06-23T07:35:44.360Z,17.74
2023-06-23T07:38:12.400Z,17.76
2023-06-23T07:40:40.449Z,17.75
2023-06-23T07:43:08.534Z,17.70
2023-06-23T07:45:36.648Z,17.71
2023-06-23T07:48:05.071Z,17.67
2023-06-23T07:50:33.292Z,17.66
2023-06-23T07:53:01.676Z,17.67
2023-06-23T07:55:29.701Z,17.78
2023-06-23T07:57:57.706Z,17.90
2023-06-23T08:00:25.853Z,17.91
2023-06-23T08:02:54.025Z,17.99
2023-06-23T08:05:22.133Z,18.12
2023-06-23T08:07:50.932Z,18.13
2023-06-23T08:10:19.021Z,18.18
2023-06-23T08:12:47.108Z,18.27
2023-06-23T08:15:15.392Z,18.40
2023-06-23T08:17:43.597Z,18.51
2023-06-23T08:20:12.711Z,18.53
2023-06-23T08:22:41.864Z,18.47
2023-06-23T08:25:10.270Z,18.40
2023-06-23T08:27:38.604Z,18.44
2023-06-23T08:30:08.167Z,18.56
2023-06-23T08:32:36.430Z,18.41
2023-06-23T08:35:05.340Z,18.51
2023-06-23T08:37:33.527Z,18.52
2023-06-23T08:40:01.684Z,18.48
2023-06-23T08:42:30.385Z,18.45
2023-06-23T08:45:03.882Z,18.41
2023-06-23T08:47:34.736Z,18.39
2023-06-23T08:50:03.281Z,18.37
2023-06-23T08:52:31.604Z,18.29
2023-06-23T08:54:59.748Z,18.28
2023-06-23T08:57:27.917Z,18.29
2023-06-23T08:59:56.831Z,18.26
2023-06-23T09:02:25.049Z,18.33
2023-06-23T09:04:53.930Z,18.38
2023-06-23T09:07:22.130Z,18.36
2023-06-23T09:09:50.154Z,18.36
2023-06-23T09:12:25.853Z,18.35
2023-06-23T09:14:58.710Z,18.36
2023-06-23T09:17:28.578Z,18.39
2023-06-23T09:19:58.138Z,18.44
2023-06-23T09:22:27.850Z,18.46
2023-06-23T09:24:55.973Z,18.44
2023-06-23T09:27:41.915Z,18.54
2023-06-23T09:30:10.369Z,18.52
2023-06-23T09:32:38.986Z,18.53
2023-06-23T09:35:08.446Z,18.56
2023-06-23T09:37:37.842Z,18.64
2023-06-23T09:40:08.229Z,18.67
2023-06-23T09:42:43.981Z,18.75
2023-06-23T09:45:19.032Z,18.79
2023-06-23T09:47:49.993Z,18.82
2023-06-23T09:50:21.913Z,18.90
2023-06-23T09:53:04.867Z,18.92
2023-06-23T09:55:33.058Z,18.96
2023-06-23T09:58:09.703Z,18.93
2023-06-23T10:00:37.892Z,18.95
2023-06-23T10:03:06.345Z,19.01
2023-06-23T10:05:39.119Z,19.18
2023-06-23T10:08:12.970Z,19.32
2023-06-23T10:10:46.246Z,19.59
2023-06-23T10:13:15.303Z,19.75
2023-06-23T10:15:43.563Z,19.86
2023-06-23T10:18:13.345Z,19.95
2023-06-23T10:20:44.902Z,20.24
2023-06-23T10:23:14.408Z,20.34
2023-06-23T10:25:46.583Z,20.47
2023-06-23T10:28:18.588Z,20.49
2023-06-23T10:30:47.495Z,20.43
2023-06-23T10:33:20.436Z,20.24
2023-06-23T10:35:50.229Z,20.27
2023-06-23T10:38:27.720Z,20.11
2023-06-23T10:41:00.605Z,20.20
2023-06-23T10:43:34.131Z,20.20
2023-06-23T10:46:04.608Z,20.30
2023-06-23T10:48:33.317Z,20.34
2023-06-23T10:51:02.475Z,20.42
2023-06-23T10:53:33.960Z,20.59
2023-06-23T10:56:08.596Z,20.72
2023-06-23T10:58:51.640Z,20.95
2023-06-23T11:01:19.965Z,21.14
2023-06-23T11:03:53.775Z,21.27
2023-06-23T11:06:28.614Z,21.49
2023-06-23T11:08:58.198Z,21.54
2023-06-23T11:11:35.046Z,21.89
2023-06-23T11:14:03.314Z,22.18
2023-06-23T11:16:39.444Z,22.38
2023-06-23T11:19:08.289Z,22.81
2023-06-23T11:21:40.334Z,22.99
2023-06-23T11:24:12.492Z,23.05
2023-06-23T11:26:44.765Z,23.15
2023-06-23T11:29:15.852Z,23.17
2023-06-23T11:32:15.540Z,23.02
2023-06-23T11:34:51.022Z,22.83
2023-06-23T11:37:20.254Z,23.06
2023-06-23T11:39:49.362Z,23.18
2023-06-23T11:42:17.490Z,23.40
2023-06-23T11:44:45.800Z,23.50
2023-06-23T11:47:14.033Z,23.43
2023-06-23T11:49:43.004Z,23.36
2023-06-23T11:52:14.060Z,23.40
2023-06-23T11:54:43.004Z,23.30
2023-06-23T11:57:11.176Z,23.64
2023-06-23T11:59:40.442Z,23.70
2023-06-23T12:02:08.551Z,23.74
2023-06-23T12:04:37.940Z,23.65
2023-06-23T12:07:10.077Z,23.64
2023-06-23T12:09:40.927Z,23.99
2023-06-23T12:12:15.130Z,24.27
2023-06-23T12:14:45.315Z,24.35
2023-06-23T12:17:14.511Z,24.33
2023-06-23T12:19:44.513Z,24.67
2023-06-23T12:22:18.900Z,24.72
2023-06-23T12:24:47.868Z,24.60
2023-06-23T12:27:16.429Z,24.57
2023-06-23T12:29:44.663Z,24.36
2023-06-23T12:32:12.888Z,24.51
2023-06-23T12:34:46.597Z,24.44
2023-06-23T12:37:19.170Z,24.68
2023-06-23T12:39:54.853Z,24.63
2023-06-23T12:42:24.326Z,25.03
2023-06-23T12:44:53.040Z,25.18
2023-06-23T12:47:21.646Z,25.65
2023-06-23T12:49:52.280Z,25.89
2023-06-23T12:52:20.372Z,26.20
2023-06-23T12:54:48.341Z,26.15
2023-06-23T12:57:16.396Z,25.67
2023-06-23T12:59:44.599Z,25.22
2023-06-23T13:02:20.171Z,25.22
2023-06-23T13:04:49.099Z,25.45
2023-06-23T13:07:17.594Z,25.34
2023-06-23T13:09:45.868Z,25.17
2023-06-23T13:12:14.096Z,25.31
2023-06-23T13:14:42.297Z,25.85
2023-06-23T13:17:10.354Z,25.86
2023-06-23T13:19:39.438Z,25.33
2023-06-23T13:22:07.677Z,25.05
2023-06-23T13:24:38.101Z,24.94
2023-06-23T13:27:09.512Z,24.95
2023-06-23T13:29:38.994Z,25.28
2023-06-23T13:32:08.049Z,25.37
2023-06-23T13:34:40.126Z,25.62
2023-06-23T13:37:08.315Z,25.85
2023-06-23T13:39:36.719Z,26.06
2023-06-23T13:42:05.345Z,26.07
2023-06-23T13:44:34.023Z,25.54
2023-06-23T13:47:02.320Z,25.21
2023-06-23T13:49:31.314Z,25.10
2023-06-23T13:51:59.573Z,24.59
2023-06-23T13:54:28.580Z,24.77
2023-06-23T13:56:57.127Z,25.00
2023-06-23T13:59:28.497Z,24.94
2023-06-23T14:01:58.090Z,25.01
2023-06-23T14:04:44.047Z,25.00
2023-06-23T14:07:15.452Z,24.95
2023-06-23T14:09:43.735Z,24.91
2023-06-23T14:12:11.796Z,24.88
2023-06-23T14:14:39.832Z,24.77
2023-06-23T14:17:08.149Z,24.96
2023-06-23T14:19:36.335Z,25.15
2023-06-23T14:22:06.073Z,25.48
2023-06-23T14:24:36.555Z,25.59
2023-06-23T14:27:05.166Z,25.71
2023-06-23T14:29:33.630Z,25.58
2023-06-23T14:32:01.963Z,25.78
2023-06-23T14:34:30.308Z,26.25
2023-06-23T14:36:58.624Z,26.47
2023-06-23T14:39:26.742Z,26.99
2023-06-23T14:41:56.080Z,27.37
2023-06-23T14:44:24.615Z,27.42
2023-06-23T14:46:52.734Z,27.34
2023-06-23T14:49:21.149Z,27.02
2023-06-23T14:51:49.401Z,26.90
2023-06-23T14:54:17.649Z,26.41
2023-06-23T14:56:46.706Z,25.97
2023-06-23T14:59:14.788Z,25.66
2023-06-23T15:01:45.213Z,25.16
2023-06-23T15:04:13.518Z,25.12
2023-06-23T15:06:41.873Z,25.08
2023-06-23T15:09:10.054Z,25.15
2023-06-23T15:11:38.321Z,25.16
2023-06-23T15:14:06.490Z,25.08
2023-06-23T15:16:34.645Z,24.93
2023-06-23T15:19:02.709Z,24.72
2023-06-23T15:21:30.907Z,24.58
2023-06-23T15:23:58.952Z,24.56
2023-06-23T15:26:27.733Z,24.54
2023-06-23T15:28:56.117Z,24.65
2023-06-23T15:31:24.484Z,24.74
2023-06-23T15:33:53.110Z,24.83
2023-06-23T15:36:21.525Z,24.78
2023-06-23T15:38:49.548Z,24.70
2023-06-23T15:41:17.763Z,24.62
2023-06-23T15:43:46.121Z,24.56
2023-06-23T15:46:14.354Z,24.53
2023-06-23T15:48:43.272Z,24.56
2023-06-23T15:51:11.354Z,24.66
2023-06-23T15:53:39.879Z,24.81
2023-06-23T15:56:08.224Z,24.85
2023-06-23T15:58:36.733Z,24.77
2023-06-23T16:01:05.933Z,24.80
2023-06-23T16:03:35.695Z,24.67
2023-06-23T16:06:04.316Z,24.42
2023-06-23T16:08:32.604Z,24.26
2023-06-23T16:11:01.225Z,24.12
2023-06-23T16:13:35.378Z,23.96
2023-06-23T16:16:03.858Z,23.77
2023-06-23T16:18:32.527Z,23.63
2023-06-23T16:21:00.837Z,23.63
2023-06-23T16:23:29.104Z,23.66
2023-06-23T16:25:57.421Z,23.71
2023-06-23T16:28:25.500Z,23.71
2023-06-23T16:30:54.961Z,23.67
2023-06-23T16:33:23.350Z,23.60
2023-06-23T16:35:51.481Z,23.49
2023-06-23T16:38:19.730Z,23.37
2023-06-23T16:40:47.909Z,23.23
2023-06-23T16:43:16.151Z,23.11
2023-06-23T16:45:44.342Z,23.05
2023-06-23T16:48:12.456Z,22.92
2023-06-23T16:50:40.591Z,22.72
2023-06-23T16:53:11.568Z,22.59
2023-06-23T16:55:39.920Z,22.54
2023-06-23T16:58:07.999Z,22.52
2023-06-23T17:00:36.034Z,22.45
2023-06-23T17:03:05.079Z,22.37
2023-06-23T17:05:34.302Z,22.29
2023-06-23T17:08:02.710Z,22.29
2023-06-23T17:10:31.161Z,22.30
2023-06-23T17:12:59.266Z,22.32
2023-06-23T17:15:27.494Z,22.29
2023-06-23T17:17:55.976Z,22.32
2023-06-23T17:20:24.189Z,22.30
2023-06-23T17:23:03.312Z,22.29
2023-06-23T17:25:35.220Z,22.32
2023-06-23T17:28:06.421Z,22.35
2023-06-23T17:30:41.994Z,22.23
2023-06-23T17:33:12.380Z,22.13
2023-06-23T17:35:42.552Z,22.05
2023-06-23T17:38:14.742Z,22.00
2023-06-23T17:40:43.689Z,21.93
2023-06-23T17:43:12.284Z,21.85
2023-06-23T17:45:40.770Z,21.71
2023-06-23T17:48:09.037Z,21.57
2023-06-23T17:50:38.198Z,21.53
2023-06-23T17:53:06.368Z,21.50
2023-06-23T17:55:34.729Z,21.53
2023-06-23T17:58:03.938Z,21.63
2023-06-23T18:00:32.276Z,21.77
2023-06-23T18:03:01.528Z,21.88
2023-06-23T18:05:31.003Z,21.93
2023-06-23T18:07:59.254Z,21.97
2023-06-23T18:10:28.140Z,21.97
2023-06-23T18:12:56.369Z,21.93
2023-06-23T18:15:24.591Z,21.90
2023-06-23T18:17:52.934Z,21.82
2023-06-23T18:20:22.103Z,21.70
2023-06-23T18:22:50.492Z,21.52
2023-06-23T18:25:18.675Z,21.30
2023-06-23T18:27:48.332Z,21.06
2023-06-23T18:30:16.728Z,20.89
2023-06-23T18:32:46.282Z,20.73
2023-06-23T18:35:15.561Z,20.58
2023-06-23T18:37:44.825Z,20.49
2023-06-23T18:40:14.174Z,20.43
2023-06-23T18:42:43.932Z,20.37
2023-06-23T18:45:14.260Z,20.30
2023-06-23T18:47:42.602Z,20.14
2023-06-23T18:50:11.492Z,19.97
2023-06-23T18:52:39.829Z,19.85
2023-06-23T18:55:08.881Z,19.77
2023-06-23T18:57:37.093Z,19.72
2023-06-23T19:00:07.074Z,19.69
2023-06-23T19:02:36.159Z,19.66
2023-06-23T19:05:05.291Z,19.63
2023-06-23T19:07:33.713Z,19.60
2023-06-23T19:10:02.358Z,19.58
2023-06-23T19:12:30.765Z,19.58
2023-06-23T19:14:58.897Z,19.57
2023-06-23T19:17:27.198Z,19.57
2023-06-23T19:19:55.503Z,19.57
2023-06-23T19:22:24.106Z,19.56
2023-06-23T19:24:52.250Z,19.55
2023-06-23T19:27:20.527Z,19.55
2023-06-23T19:29:48.791Z,19.53
2023-06-23T19:32:17.055Z,19.51
2023-06-23T19:34:45.232Z,19.50
2023-06-23T19:37:18.689Z,19.49
2023-06-23T19:39:59.165Z,19.49
2023-06-23T19:42:29.493Z,19.50
2023-06-23T19:44:58.349Z,19.51
2023-06-23T19:47:26.887Z,19.51
2023-06-23T19:49:55.322Z,19.52
2023-06-23T19:52:23.614Z,19.50
2023-06-23T19:54:51.695Z,19.48
2023-06-23T19:57:19.796Z,19.47
2023-06-23T19:59:49.692Z,19.47
2023-06-23T20:02:18.064Z,19.47
2023-06-23T20:04:46.231Z,19.45
2023-06-23T20:07:17.445Z,19.40
2023-06-23T20:09:45.547Z,19.38
2023-06-23T20:12:13.652Z,19.33
2023-06-23T20:14:41.839Z,19.30
2023-06-23T20:17:10.023Z,19.28
2023-06-23T20:19:38.208Z,19.26
2023-06-23T20:22:07.337Z,19.26
2023-06-23T20:24:35.556Z,19.25
2023-06-23T20:27:03.949Z,19.25
2023-06-23T20:29:32.176Z,19.27
2023-06-23T20:32:00.541Z,19.28
2023-06-23T20:34:28.678Z,19.29
2023-06-23T20:36:57.002Z,19.26
2023-06-23T20:39:28.322Z,19.25
2023-06-23T20:41:56.511Z,19.25
2023-06-23T20:44:24.908Z,19.25
2023-06-23T20:46:53.337Z,19.24
2023-06-23T20:49:26.874Z,19.24
2023-06-23T20:51:55.165Z,19.24
2023-06-23T20:54:23.170Z,19.25
2023-06-23T20:56:51.216Z,19.25
2023-06-23T20:59:19.434Z,19.27
2023-06-23T21:01:47.581Z,19.26
2023-06-23T21:04:16.384Z,19.25
2023-06-23T21:06:44.792Z,19.25
2023-06-23T21:09:13.070Z,19.24
2023-06-23T21:11:41.091Z,19.24
2023-06-23T21:14:09.572Z,19.25
2023-06-23T21:16:37.629Z,19.30
2023-06-23T21:19:05.683Z,19.37
2023-06-23T21:21:34.100Z,19.41
2023-06-23T21:24:04.411Z,19.43
2023-06-23T21:26:32.932Z,19.44
2023-06-23T21:29:01.427Z,19.42
2023-06-23T21:31:29.613Z,19.41
2023-06-23T21:33:57.714Z,19.40
2023-06-23T21:36:25.854Z,19.37
2023-06-23T21:38:54.432Z,19.32
2023-06-23T21:41:22.662Z,19.28
2023-06-23T21:43:50.763Z,19.24
2023-06-23T21:46:19.007Z,19.21
2023-06-23T21:48:55.130Z,19.17
2023-06-23T21:51:25.023Z,19.13
2023-06-23T21:53:53.818Z,19.05
2023-06-23T21:56:22.506Z,19.04
2023-06-23T21:58:50.527Z,19.01
2023-06-23T22:01:18.849Z,18.99
2023-06-23T22:03:47.020Z,18.92
2023-06-23T22:06:15.094Z,18.87
2023-06-23T22:08:43.437Z,18.83
2023-06-23T22:11:11.653Z,18.84
2023-06-23T22:13:39.712Z,18.80
2023-06-23T22:16:08.052Z,18.78
2023-06-23T22:18:49.310Z,18.72
2023-06-23T22:21:22.159Z,18.68
2023-06-23T22:23:50.419Z,18.66
2023-06-23T22:26:18.761Z,18.64
2023-06-23T22:28:46.905Z,18.61
2023-06-23T22:31:15.799Z,18.60
2023-06-23T22:33:43.982Z,18.57
2023-06-23T22:36:12.217Z,18.53
2023-06-23T22:38:40.375Z,18.52
2023-06-23T22:41:08.408Z,18.47
2023-06-23T22:43:36.475Z,18.42
2023-06-23T22:46:04.731Z,18.41
2023-06-23T22:48:32.899Z,18.38
2023-06-23T22:51:00.926Z,18.34
2023-06-23T22:53:28.920Z,18.33
2023-06-23T22:55:57.491Z,18.30
2023-06-23T22:58:27.698Z,18.29
2023-06-23T23:00:56.230Z,18.28
2023-06-23T23:03:24.376Z,18.25
2023-06-23T23:05:53.577Z,18.22
2023-06-23T23:08:21.755Z,18.17
2023-06-23T23:10:50.146Z,18.16
2023-06-23T23:13:18.160Z,18.13
2023-06-23T23:15:46.257Z,18.11
2023-06-23T23:18:14.377Z,18.07
2023-06-23T23:20:44.465Z,18.04
2023-06-23T23:23:12.685Z,18.02
2023-06-23T23:25:41.370Z,17.99
2023-06-23T23:28:09.623Z,17.97
2023-06-23T23:30:38.141Z,17.95
2023-06-23T23:33:06.888Z,17.93
2023-06-23T23:35:40.939Z,17.90
2023-06-23T23:38:09.335Z,17.87
2023-06-23T23:40:37.625Z,17.86
2023-06-23T23:43:06.960Z,17.84
2023-06-23T23:45:35.152Z,17.82
2023-06-23T23:48:03.573Z,17.81
2023-06-23T23:50:31.633Z,17.78
2023-06-23T23:53:02.586Z,17.76
2023-06-23T23:55:31.135Z,17.73
2023-06-23T23:58:00.713Z,17.70
